Time;durP1;ratioP1;P1;durP2;ratioP2;P2;SDS_P1;SDS_P2;PMS_P1;PMS_P2;Temp;Humidity;BMP_temperature;BMP_pressure;BME280_temperature;BME280_humidity;BME280_pressure;Samples;Min_cycle;Max_cycle;Signal;HPM_P1;HPM_P2
2020/12/10 00:05:30;;;;;;;16.77;8.83;;;;;;;-6.34;71.29;101600.39;1835244;77;22660;-69
2020/12/10 00:07:58;;;;;;;17.67;9.00;;;;;;;-6.47;71.22;101597.10;1796558;78;21159;-71
2020/12/10 00:10:25;;;;;;;16.35;8.50;;;;;;;-6.57;71.19;101593.58;1807254;78;21203;-71
2020/12/10 00:12:52;;;;;;;16.67;7.85;;;;;;;-6.67;71.23;101587.79;1802763;79;21187;-69
2020/12/10 00:15:20;;;;;;;16.15;7.65;;;;;;;-6.75;71.32;101582.34;1803566;79;21178;-70
2020/12/10 00:17:47;;;;;;;17.35;8.83;;;;;;;-6.80;71.40;101579.77;1772968;79;21163;-69
2020/12/10 00:20:15;;;;;;;15.72;8.83;;;;;;;-6.87;71.49;101582.84;1785315;79;21248;-70
2020/12/10 00:22:42;;;;;;;12.95;6.85;;;;;;;-6.93;71.57;101574.22;1792217;80;21578;-72
2020/12/10 00:25:09;;;;;;;17.07;8.23;;;;;;;-6.95;71.67;101572.20;1783380;79;21693;-70
2020/12/10 00:27:37;;;;;;;16.75;7.25;;;;;;;-6.98;71.73;101562.52;1811137;79;21176;-71
2020/12/10 00:30:08;;;;;;;14.60;7.22;;;;;;;-7.02;71.89;101565.83;1806675;79;21083;-70
2020/12/10 00:32:37;;;;;;;11.88;5.90;;;;;;;-7.05;71.99;101568.66;1809103;79;21064;-70
2020/12/10 00:35:05;;;;;;;13.25;6.95;;;;;;;-7.10;72.05;101570.32;1816112;79;21366;-70
2020/12/10 00:37:34;;;;;;;16.62;8.28;;;;;;;-7.12;72.17;101570.08;1804760;79;21131;-71
2020/12/10 00:40:01;;;;;;;18.50;9.25;;;;;;;-7.15;72.25;101568.53;1792474;79;21706;-70
2020/12/10 00:42:29;;;;;;;16.25;8.30;;;;;;;-7.19;72.37;101559.81;1800572;79;21285;-70
2020/12/10 00:44:57;;;;;;;18.67;9.25;;;;;;;-7.20;72.43;101562.06;1792423;79;21159;-70
2020/12/10 00:47:24;;;;;;;15.57;7.67;;;;;;;-7.18;72.51;101558.86;1667410;77;10000344;-70
2020/12/10 01:02:28;;;;;;;15.23;8.03;;;;;;;-6.70;72.09;101532.16;1634647;79;10000080;-65
2020/12/10 01:04:57;;;;;;;14.98;7.85;;;;;;;-6.82;72.03;101536.19;1737684;81;22698;-66
2020/12/10 01:07:24;;;;;;;14.93;7.58;;;;;;;-6.90;72.01;101549.31;1751370;80;21201;-66
2020/12/10 01:09:52;;;;;;;17.30;8.45;;;;;;;-6.94;72.04;101544.45;1744628;79;21199;-68
2020/12/10 01:12:20;;;;;;;17.17;8.78;;;;;;;-6.98;72.03;101547.76;1747113;81;21201;-65
2020/12/10 01:14:47;;;;;;;15.75;8.28;;;;;;;-6.97;72.02;101552.51;1748890;81;21673;-66
2020/12/10 01:17:15;;;;;;;13.62;7.10;;;;;;;-6.98;71.98;101554.73;1748213;81;21705;-66
2020/12/10 01:19:42;;;;;;;19.35;8.48;;;;;;;-6.97;71.99;101565.02;1740328;81;21234;-65
2020/12/10 01:22:12;;;;;;;19.75;8.55;;;;;;;-7.01;71.97;101560.16;1743213;81;21191;-65
2020/12/10 01:24:41;;;;;;;15.72;8.45;;;;;;;-7.00;71.98;101556.16;1753979;79;21235;-65
2020/12/10 01:27:08;;;;;;;15.20;6.95;;;;;;;-7.01;71.96;101549.77;1748023;81;21190;-66
2020/12/10 01:29:36;;;;;;;18.80;8.18;;;;;;;-7.04;71.97;101550.00;1750731;81;21452;-67
2020/12/10 01:32:03;;;;;;;11.28;5.67;;;;;;;-7.11;72.00;101547.05;1741595;81;21642;-65
2020/12/10 01:34:30;;;;;;;17.20;8.03;;;;;;;-7.15;72.08;101545.17;1747163;79;21755;-65
2020/12/10 01:36:59;;;;;;;13.85;7.30;;;;;;;-7.20;72.12;101538.22;1751569;81;21233;-65
2020/12/10 01:39:26;;;;;;;14.20;6.97;;;;;;;-7.22;72.20;101534.91;1748199;81;21594;-65
2020/12/10 01:41:54;;;;;;;13.45;6.33;;;;;;;-7.24;72.23;101534.66;1788905;77;21677;-65
2020/12/10 01:44:21;;;;;;;15.05;7.08;;;;;;;-7.28;72.32;101531.95;1790691;79;21182;-65
2020/12/10 01:46:49;;;;;;;12.05;6.30;;;;;;;-7.33;72.43;101531.84;1784784;79;21272;-64
2020/12/10 01:49:16;;;;;;;12.45;6.42;;;;;;;-7.32;72.49;101539.14;1791408;77;21641;-65
2020/12/10 01:51:44;;;;;;;13.50;7.05;;;;;;;-7.31;72.54;101534.30;1786402;79;21214;-67
2020/12/10 01:54:11;;;;;;;13.80;6.60;;;;;;;-7.29;72.58;101549.77;1801569;79;21285;-66
2020/12/10 01:56:39;;;;;;;17.17;7.05;;;;;;;-7.33;72.60;101546.59;1797114;77;21191;-65
2020/12/10 01:59:06;;;;;;;13.55;6.55;;;;;;;-7.34;72.68;101551.40;1796372;79;21160;-65
2020/12/10 02:12:34;;;;;;;11.73;7.10;;;;;;;-6.77;72.21;101532.78;1795835;79;22117;-73
2020/12/10 02:15:02;;;;;;;13.75;7.35;;;;;;;-6.86;72.14;101524.74;1778000;80;21187;-73
2020/12/10 02:17:29;;;;;;;13.78;7.17;;;;;;;-6.93;72.04;101526.64;1735140;81;21807;-73
2020/12/10 02:19:57;;;;;;;15.20;7.45;;;;;;;-6.97;72.01;101531.26;1723738;82;21222;-74
2020/12/10 02:22:25;;;;;;;12.20;6.47;;;;;;;-7.02;72.03;101524.28;1721457;82;22319;-73
2020/12/10 02:24:52;;;;;;;13.80;6.75;;;;;;;-7.07;71.98;101518.64;1685527;83;21600;-74
2020/12/10 02:27:20;;;;;;;13.80;7.28;;;;;;;-7.12;72.03;101519.45;1684492;83;21184;-74
2020/12/10 02:29:47;;;;;;;13.05;6.05;;;;;;;-7.15;72.10;101517.91;1664478;83;21387;-74
2020/12/10 02:32:16;;;;;;;13.40;6.30;;;;;;;-7.18;72.12;101514.72;1661044;84;21236;-73
2020/12/10 02:34:45;;;;;;;16.60;8.08;;;;;;;-7.20;72.18;101518.75;1671021;85;21603;-72
2020/12/10 02:37:13;;;;;;;13.93;7.12;;;;;;;-7.22;72.23;101505.52;1669616;84;21528;-73
2020/12/10 02:39:40;;;;;;;14.13;7.60;;;;;;;-7.24;72.25;101499.14;1665934;84;21597;-72
2020/12/10 02:42:08;;;;;;;15.23;7.12;;;;;;;-7.24;72.30;101497.84;1669656;84;22151;-72
2020/12/10 02:44:35;;;;;;;15.43;7.60;;;;;;;-7.23;72.29;101500.81;1662969;84;21112;-73
2020/12/10 02:47:03;;;;;;;13.32;5.80;;;;;;;-7.26;72.32;101495.86;1663313;84;21659;-73
2020/12/10 02:49:31;;;;;;;14.83;7.25;;;;;;;-7.29;72.34;101504.34;1673709;84;21216;-72
2020/12/10 02:51:58;;;;;;;11.70;5.33;;;;;;;-7.38;72.41;101496.31;1664805;84;21181;-73
2020/12/10 02:54:25;;;;;;;14.50;6.72;;;;;;;-7.42;72.54;101493.60;1662305;84;21390;-73
2020/12/10 02:56:53;;;;;;;14.90;7.22;;;;;;;-7.45;72.57;101484.75;1670431;84;21097;-72
2020/12/10 02:59:20;;;;;;;12.90;6.30;;;;;;;-7.43;72.65;101494.55;1661183;84;21247;-72
2020/12/10 03:01:52;;;;;;;16.62;6.67;;;;;;;-7.42;72.65;101496.67;1666327;84;21610;-74
2020/12/10 03:04:20;;;;;;;12.60;6.40;;;;;;;-7.44;72.69;101485.09;1669441;84;21309;-73
2020/12/10 03:06:47;;;;;;;13.35;6.70;;;;;;;-7.45;72.74;101489.12;1665648;84;21252;-73
2020/12/10 03:09:14;;;;;;;12.65;6.85;;;;;;;-7.44;72.76;101490.28;1670307;84;21224;-72
2020/12/10 03:11:42;;;;;;;13.10;6.33;;;;;;;-7.41;72.75;101485.34;1666373;84;21212;-72
2020/12/10 03:14:09;;;;;;;13.40;7.05;;;;;;;-7.40;72.74;101490.42;1664982;84;21164;-73
2020/12/10 03:16:37;;;;;;;13.70;7.20;;;;;;;-7.38;72.72;101491.59;1662544;84;21172;-73
2020/12/10 03:19:05;;;;;;;13.15;5.45;;;;;;;-7.36;72.71;101488.42;1669283;85;21390;-72
2020/12/10 03:21:33;;;;;;;14.83;6.92;;;;;;;-7.38;72.72;101489.82;1666470;84;21502;-73
2020/12/10 03:24:01;;;;;;;11.55;6.15;;;;;;;-7.39;72.75;101496.44;1662964;84;21156;-73
2020/12/10 03:26:28;;;;;;;17.82;7.45;;;;;;;-7.38;72.80;101492.89;1669963;84;21537;-73
2020/12/10 03:28:56;;;;;;;16.17;7.37;;;;;;;-7.35;72.82;101487.47;1676772;84;21367;-73
2020/12/10 03:31:23;;;;;;;13.40;7.25;;;;;;;-7.35;72.81;101492.18;1664362;84;21292;-73
2020/12/10 03:33:51;;;;;;;11.90;6.03;;;;;;;-7.34;72.89;101480.87;1669236;84;21200;-73
2020/12/10 03:36:19;;;;;;;12.80;6.08;;;;;;;-7.29;72.93;101472.73;1671079;84;21221;-72
2020/12/10 03:38:46;;;;;;;14.45;7.58;;;;;;;-7.25;72.93;101466.34;1665367;85;21164;-72
2020/12/10 03:41:13;;;;;;;12.07;5.53;;;;;;;-7.17;72.93;101474.83;1670991;84;21105;-72
2020/12/10 03:43:41;;;;;;;12.68;6.37;;;;;;;-7.09;72.91;101472.48;1665997;84;21207;-72
2020/12/10 03:46:09;;;;;;;10.88;5.70;;;;;;;-6.99;72.95;101467.39;1663796;84;21145;-73
2020/12/10 03:48:37;;;;;;;13.45;6.95;;;;;;;-6.91;72.70;101472.80;1667617;84;22669;-72
2020/12/10 03:51:04;;;;;;;14.60;7.37;;;;;;;-6.83;72.69;101469.61;1672946;84;21193;-72
2020/12/10 03:53:34;;;;;;;13.50;6.55;;;;;;;-6.76;72.68;101469.48;1663943;84;21069;-72
2020/12/10 03:56:01;;;;;;;13.50;6.95;;;;;;;-6.69;72.50;101461.06;1665111;84;21409;-73
2020/12/10 03:58:28;;;;;;;12.58;6.60;;;;;;;-6.59;72.33;101464.23;1659484;84;21144;-72
2020/12/10 04:00:56;;;;;;;13.50;6.03;;;;;;;-6.56;72.22;101457.48;1668788;84;21201;-73
2020/12/10 04:03:23;;;;;;;13.18;6.05;;;;;;;-6.51;72.16;101458.78;1667115;84;21105;-73
2020/12/10 04:05:51;;;;;;;13.55;6.55;;;;;;;-6.47;71.99;101449.78;1668041;83;21199;-73
2020/12/10 04:08:18;;;;;;;11.95;6.10;;;;;;;-6.42;71.92;101447.61;1682033;84;21827;-73
2020/12/10 04:10:45;;;;;;;11.70;6.60;;;;;;;-6.39;71.81;101440.87;1677559;83;21247;-73
2020/12/10 04:13:13;;;;;;;14.13;7.30;;;;;;;-6.35;71.79;101432.34;1659282;84;21140;-73
2020/12/10 04:15:41;;;;;;;12.37;5.67;;;;;;;-6.30;71.65;101430.69;1687028;84;21184;-73
2020/12/10 04:18:08;;;;;;;14.85;7.30;;;;;;;-6.23;71.60;101427.92;1668590;84;21220;-72
2020/12/10 04:20:36;;;;;;;14.70;6.35;;;;;;;-6.20;71.47;101430.28;1655890;84;22419;-73
2020/12/10 04:23:04;;;;;;;12.00;6.20;;;;;;;-6.15;71.36;101427.66;1655227;85;21110;-73
2020/12/10 04:25:31;;;;;;;13.05;7.00;;;;;;;-6.15;71.16;101421.64;1669601;84;21184;-73
2020/12/10 04:27:58;;;;;;;12.85;6.53;;;;;;;-6.15;71.11;101425.05;1668813;85;21213;-73
2020/12/10 04:30:26;;;;;;;12.18;5.87;;;;;;;-6.16;71.10;101426.47;1669469;84;21141;-72
2020/12/10 04:32:53;;;;;;;11.63;6.45;;;;;;;-6.15;71.06;101418.55;1665509;84;22618;-72
2020/12/10 04:35:21;;;;;;;14.83;6.22;;;;;;;-6.13;71.05;101428.81;1677031;83;21163;-73
2020/12/10 04:37:48;;;;;;;13.72;7.03;;;;;;;-6.11;71.09;101424.80;1644951;85;21172;-72
2020/12/10 04:40:16;;;;;;;11.73;6.30;;;;;;;-6.09;71.04;101434.59;1658777;85;21129;-72
2020/12/10 04:42:46;;;;;;;14.58;7.37;;;;;;;-6.08;71.08;101424.55;1669020;84;21516;-73
2020/12/10 04:45:14;;;;;;;14.33;7.78;;;;;;;-6.05;71.11;101423.00;1671050;84;22357;-73
2020/12/10 04:47:42;;;;;;;12.07;6.22;;;;;;;-5.98;71.10;101424.13;1664175;84;21172;-73
2020/12/10 04:50:17;;;;;;;13.35;6.47;;;;;;;-5.97;70.88;101424.47;1668001;84;21281;-73
2020/12/10 04:52:39;;;;;;;12.53;6.10;;;;;;;-6.03;70.85;101416.70;1653829;84;21192;-74
2020/12/10 04:55:07;;;;;;;12.73;6.85;;;;;;;-6.03;70.81;101418.00;1654224;84;21641;-73
2020/12/10 04:57:35;;;;;;;12.15;5.87;;;;;;;-6.05;70.81;101419.92;1667666;84;21389;-73
2020/12/10 05:00:04;;;;;;;14.15;7.15;;;;;;;-6.05;70.84;101420.40;1661179;84;21138;-73
2020/12/10 05:02:32;;;;;;;15.08;6.33;;;;;;;-6.03;70.83;101423.67;1668717;84;21496;-73
2020/12/10 05:04:59;;;;;;;12.20;6.45;;;;;;;-6.01;70.88;101418.70;1660230;85;21203;-73
2020/12/10 05:07:39;;;;;;;14.40;8.05;;;;;;;-6.02;70.90;101414.91;1658752;84;21668;-74
2020/12/10 05:10:07;;;;;;;13.00;6.60;;;;;;;-5.98;70.87;101431.94;1650909;84;23224;-73
2020/12/10 05:12:34;;;;;;;11.05;5.92;;;;;;;-6.01;70.94;101423.91;1668050;84;21110;-74
2020/12/10 05:15:02;;;;;;;13.88;6.80;;;;;;;-5.99;70.94;101430.27;1662800;84;21516;-73
2020/12/10 05:17:29;;;;;;;13.00;6.83;;;;;;;-5.99;71.01;101428.52;1652856;85;21619;-74
2020/12/10 05:19:58;;;;;;;13.45;6.90;;;;;;;-6.00;71.07;101428.15;1660644;84;21200;-73
2020/12/10 05:22:25;;;;;;;15.78;7.40;;;;;;;-5.98;71.10;101424.13;1664236;84;21545;-73
2020/12/10 05:25:03;;;;;;;10.75;5.62;;;;;;;-5.92;71.18;101428.80;1669499;84;21101;-73
2020/12/10 05:27:32;;;;;;;14.30;6.58;;;;;;;-5.85;71.23;101438.22;1675248;84;21643;-74
2020/12/10 05:30:00;;;;;;;13.15;6.37;;;;;;;-5.81;71.20;101435.70;1660843;84;21149;-74
2020/12/10 05:32:40;;;;;;;12.68;6.65;;;;;;;-5.79;71.23;101446.78;1666661;84;21221;-73
2020/12/10 05:35:25;;;;;;;16.07;6.90;;;;;;;-5.71;71.28;101446.98;1808327;79;22799;-69
2020/12/10 05:37:54;;;;;;;15.45;7.78;;;;;;;-5.74;71.31;101445.93;1781063;78;21046;-69
2020/12/10 05:40:22;;;;;;;12.65;6.17;;;;;;;-5.74;71.39;101446.75;1775462;78;21357;-69
2020/12/10 05:42:51;;;;;;;10.70;6.00;;;;;;;-5.72;71.40;101450.06;1814336;77;21096;-68
2020/12/10 05:45:23;;;;;;;14.35;7.30;;;;;;;-5.70;71.45;101449.44;1804950;77;21195;-69
2020/12/10 05:47:58;;;;;;;12.35;6.50;;;;;;;-5.69;71.47;101452.41;1773660;79;21228;-69
2020/12/10 05:50:29;;;;;;;10.50;6.45;;;;;;;-5.66;71.51;101452.61;1801041;78;21206;-68
2020/12/10 05:53:12;;;;;;;14.65;7.80;;;;;;;-5.62;71.58;101452.72;1803137;78;21353;-68
2020/12/10 05:55:44;;;;;;;12.15;6.70;;;;;;;-5.57;71.63;101451.83;1802489;77;20974;-68
2020/12/10 05:58:12;;;;;;;16.80;7.87;;;;;;;-5.52;71.53;101456.19;1747352;80;21204;-69
2020/12/10 06:00:39;;;;;;;12.43;6.90;;;;;;;-5.49;71.56;101446.00;1805871;77;21111;-68
2020/12/10 06:03:08;;;;;;;11.55;6.97;;;;;;;-5.44;71.44;101439.42;1806520;77;21161;-68
2020/12/10 06:05:38;;;;;;;13.40;6.78;;;;;;;-5.47;71.29;101435.78;1751575;79;22649;-69
2020/12/10 06:08:08;;;;;;;13.10;6.55;;;;;;;-5.46;71.35;101427.52;1758421;80;21116;-68
2020/12/10 06:10:41;;;;;;;17.07;7.20;;;;;;;-5.46;71.29;101432.72;1775536;79;21080;-69
2020/12/10 06:13:10;;;;;;;15.00;7.60;;;;;;;-5.48;71.29;101434.14;1776523;79;21580;-69
2020/12/10 06:15:37;;;;;;;14.20;6.90;;;;;;;-5.45;71.41;101423.95;1780361;78;21164;-69
2020/12/10 06:18:12;;;;;;;12.73;6.85;;;;;;;-5.42;71.47;101433.63;1781510;78;21207;-69
2020/12/10 06:20:45;;;;;;;13.28;7.47;;;;;;;-5.37;71.47;101429.80;1785464;78;21633;-69
2020/12/10 06:23:31;;;;;;;12.68;6.90;;;;;;;-5.36;71.43;101418.41;1789793;78;21074;-68
2020/12/10 06:26:21;;;;;;;15.08;7.15;;;;;;;-5.30;71.41;101421.80;1769165;79;21108;-69
2020/12/10 06:28:48;;;;;;;15.60;7.50;;;;;;;-5.24;71.40;101421.27;1770382;79;21129;-69
2020/12/10 06:31:15;;;;;;;13.62;7.03;;;;;;;-5.18;71.39;101420.74;1774296;79;23594;-69
2020/12/10 06:33:47;;;;;;;12.50;6.33;;;;;;;-5.10;71.39;101425.28;1766919;80;21087;-69
2020/12/10 06:36:25;;;;;;;12.18;6.90;;;;;;;-5.01;71.29;101431.00;1771169;79;21089;-69
2020/12/10 06:38:55;;;;;;;13.98;6.80;;;;;;;-4.96;71.00;101425.73;1779347;79;21170;-69
2020/12/10 06:41:24;;;;;;;12.80;7.25;;;;;;;-4.93;70.79;101422.53;1767366;79;21176;-69
2020/12/10 06:43:52;;;;;;;16.00;8.20;;;;;;;-4.91;70.81;101419.30;1767734;79;21493;-68
2020/12/10 06:46:21;;;;;;;12.07;6.85;;;;;;;-4.86;70.65;101411.91;1774325;80;21141;-69
2020/12/10 06:48:50;;;;;;;13.03;6.78;;;;;;;-4.80;70.53;101407.46;1758200;80;21168;-69
2020/12/10 06:51:21;;;;;;;15.40;7.30;;;;;;;-4.76;70.49;101403.13;1764410;81;21591;-69
2020/12/10 06:54:07;;;;;;;18.65;8.05;;;;;;;-4.75;70.40;101402.65;1768126;79;21180;-69
2020/12/10 06:57:01;;;;;;;15.48;7.33;;;;;;;-4.76;70.39;101408.83;1787750;80;21371;-70
2020/12/10 06:59:43;;;;;;;14.33;7.70;;;;;;;-4.75;70.39;101401.34;1760107;79;21216;-69
2020/12/10 07:02:13;;;;;;;16.15;7.92;;;;;;;-4.78;70.14;101393.80;1751197;80;21638;-69
2020/12/10 07:04:50;;;;;;;11.50;6.28;;;;;;;-4.83;70.14;101396.00;1774487;79;21156;-69
2020/12/10 07:07:23;;;;;;;14.05;7.80;;;;;;;-4.82;70.26;101396.34;1764840;79;21593;-68
2020/12/10 07:12:43;;;;;;;14.33;8.75;;;;;;;-4.66;70.16;101399.23;1806865;77;27872;-69
2020/12/10 07:15:23;;;;;;;16.10;8.58;;;;;;;-4.62;69.98;101403.20;1786777;78;21085;-69
2020/12/10 07:17:50;;;;;;;13.75;7.75;;;;;;;-4.60;69.82;101391.47;1744727;80;21560;-68
2020/12/10 07:20:21;;;;;;;15.10;7.75;;;;;;;-4.62;69.71;101391.47;1743448;80;21156;-68
2020/12/10 07:22:48;;;;;;;14.33;7.33;;;;;;;-4.61;69.62;101395.72;1744282;80;21116;-68
2020/12/10 07:25:17;;;;;;;16.00;8.35;;;;;;;-4.63;69.54;101398.96;1729384;81;21561;-67
2020/12/10 07:27:46;;;;;;;17.32;8.00;;;;;;;-4.64;69.47;101399.08;1714393;81;21200;-68
2020/12/10 07:30:18;;;;;;;13.78;7.55;;;;;;;-4.67;69.39;101392.38;1738539;81;21222;-68
2020/12/10 07:32:46;;;;;;;16.37;8.28;;;;;;;-4.73;69.29;101384.62;1736537;81;21373;-69
2020/12/10 07:35:13;;;;;;;13.32;7.12;;;;;;;-4.79;69.60;101395.59;1749857;81;21148;-69
2020/12/10 07:37:41;;;;;;;16.48;7.35;;;;;;;-4.79;69.60;101395.59;1764960;80;21686;-70
2020/12/10 07:40:12;;;;;;;14.40;7.30;;;;;;;-4.87;69.55;101399.81;1760428;80;21177;-68
2020/12/10 07:42:40;;;;;;;14.68;8.55;;;;;;;-4.87;69.55;101399.81;1730064;81;21441;-69
2020/12/10 07:45:17;;;;;;;13.90;7.62;;;;;;;-4.91;69.70;101395.36;1724957;81;21189;-69
2020/12/10 07:48:00;;;;;;;18.05;8.88;;;;;;;-4.90;69.82;101393.57;1762760;80;21132;-68
2020/12/10 07:50:29;;;;;;;14.70;7.22;;;;;;;-4.88;69.95;101388.58;1730603;81;21179;-69
2020/12/10 07:52:58;;;;;;;17.70;7.87;;;;;;;-4.85;70.03;101390.09;1759339;80;21168;-70
2020/12/10 07:55:28;;;;;;;14.20;7.65;;;;;;;-4.84;70.07;101383.42;1730661;81;21386;-70
2020/12/10 07:58:42;;;;;;;16.40;8.93;;;;;;;-4.80;70.15;101382.70;1738894;80;21224;-69
2020/12/10 08:01:10;;;;;;;16.37;8.50;;;;;;;-4.80;70.07;101376.19;1763043;80;21217;-70
2020/12/10 08:03:56;;;;;;;15.55;8.33;;;;;;;-4.78;70.12;101371.16;1737011;81;21145;-69
2020/12/10 08:06:23;;;;;;;14.45;8.48;;;;;;;-4.73;70.13;101369.47;1735952;80;21220;-70
2020/12/10 08:09:01;;;;;;;15.10;8.40;;;;;;;-4.66;70.09;101375.77;1673252;81;21834;-69
2020/12/10 08:11:30;;;;;;;16.95;8.78;;;;;;;-4.61;69.94;101367.04;1730544;81;21264;-69
2020/12/10 08:14:05;;;;;;;14.23;7.45;;;;;;;-4.57;69.96;101371.53;1739467;80;21197;-69
2020/12/10 08:16:42;;;;;;;15.60;8.33;;;;;;;-4.52;69.81;101368.83;1745378;81;21504;-69
2020/12/10 08:19:18;;;;;;;15.58;7.85;;;;;;;-4.45;69.81;101367.79;1711195;83;21192;-70
2020/12/10 08:21:48;;;;;;;13.32;7.70;;;;;;;-4.37;69.78;101352.19;1742902;81;21461;-71
2020/12/10 08:24:38;;;;;;;15.93;8.58;;;;;;;-4.31;69.73;101352.19;1760432;80;21185;-71
2020/12/10 08:27:06;;;;;;;17.65;8.73;;;;;;;-4.21;69.47;101338.67;1745047;81;21176;-70
2020/12/10 08:29:33;;;;;;;14.90;7.62;;;;;;;-4.17;69.34;101344.42;1741979;81;21176;-70
2020/12/10 08:32:12;;;;;;;16.90;8.50;;;;;;;-4.14;69.01;101350.18;1737704;81;21196;-69
2020/12/10 08:34:40;;;;;;;14.90;8.75;;;;;;;-4.19;68.98;101341.13;1743462;81;22261;-71
2020/12/10 08:37:09;;;;;;;21.23;9.70;;;;;;;-4.22;69.04;101344.83;1754612;80;21140;-69
2020/12/10 08:39:39;;;;;;;16.10;8.05;;;;;;;-4.18;69.42;101333.62;1752558;80;21201;-69
2020/12/10 08:42:07;;;;;;;20.15;9.38;;;;;;;-4.18;69.42;101333.62;1752487;80;21161;-69
2020/12/10 08:44:46;;;;;;;19.82;9.58;;;;;;;-4.14;69.11;101348.06;1752319;80;21865;-68
2020/12/10 08:50:27;;;;;;;16.23;8.90;;;;;;;-4.13;69.26;101340.08;1819185;77;22379;-70
2020/12/10 08:53:07;;;;;;;17.02;8.95;;;;;;;-4.21;69.33;101341.28;1795521;79;21364;-69
2020/12/10 08:58:30;;;;;;;15.53;8.63;;;;;;;-4.16;69.57;101325.19;1838394;76;22704;-69
2020/12/10 09:00:59;;;;;;;15.18;8.03;;;;;;;-4.17;69.63;101319.64;1789973;79;21570;-70
2020/12/10 09:03:28;;;;;;;16.90;9.18;;;;;;;-4.17;69.63;101319.64;1794411;79;22701;-69
2020/12/10 09:05:55;;;;;;;12.55;7.70;;;;;;;-4.14;69.88;101315.45;1795915;79;21068;-70
2020/12/10 09:08:23;;;;;;;15.23;8.23;;;;;;;-4.13;70.03;101310.08;1786713;79;21207;-69
2020/12/10 09:10:52;;;;;;;15.10;8.53;;;;;;;-4.13;70.21;101308.77;1780617;79;21175;-69
2020/12/10 09:13:24;;;;;;;15.38;8.68;;;;;;;-4.11;70.38;101308.64;1803246;79;21203;-69
2020/12/10 09:15:49;;;;;;;16.48;8.50;;;;;;;-4.06;70.57;101308.53;1793989;79;21967;-70
2020/12/10 09:18:16;;;;;;;21.90;9.40;;;;;;;-3.99;70.64;101314.00;1792200;79;21677;-69
2020/12/10 09:20:43;;;;;;;17.40;8.78;;;;;;;-3.95;70.76;101308.83;1778181;79;21155;-69
2020/12/10 09:23:11;;;;;;;15.60;8.38;;;;;;;-3.94;70.81;101297.45;1786735;78;21119;-69
2020/12/10 09:25:39;;;;;;;16.65;9.25;;;;;;;-3.89;70.89;101299.13;1798289;79;21168;-70
2020/12/10 09:28:08;;;;;;;15.40;7.83;;;;;;;-3.86;70.93;101300.63;1794409;78;21896;-70
2020/12/10 09:30:38;;;;;;;15.28;8.80;;;;;;;-3.83;70.97;101293.33;1809708;77;21200;-70
2020/12/10 09:33:09;;;;;;;15.30;8.58;;;;;;;-3.75;71.00;101296.55;1793036;79;21138;-68
2020/12/10 09:35:37;;;;;;;14.58;8.58;;;;;;;-3.66;71.02;101298.26;1841982;77;21172;-69
2020/12/10 09:38:05;;;;;;;16.70;9.38;;;;;;;-3.58;70.82;101300.98;1816080;79;21195;-70
2020/12/10 09:40:33;;;;;;;18.77;9.30;;;;;;;-3.58;70.85;101301.47;1817143;77;21481;-69
2020/12/10 09:43:01;;;;;;;19.10;9.20;;;;;;;-3.58;70.91;101305.38;1813055;77;21198;-69
2020/12/10 09:45:29;;;;;;;16.60;9.13;;;;;;;-3.56;70.90;101303.42;1793532;79;21694;-69
2020/12/10 09:47:57;;;;;;;20.77;10.40;;;;;;;-3.57;70.90;101293.47;1799450;78;21198;-70
2020/12/10 09:50:34;;;;;;;17.98;8.98;;;;;;;-3.58;70.98;101284.49;1795722;79;21135;-69
2020/12/10 09:53:22;;;;;;;19.30;9.85;;;;;;;-3.58;71.13;101284.00;1796909;79;21778;-69
2020/12/10 09:58:22;;;;;;;18.65;10.20;;;;;;;-3.55;71.27;101309.83;1808995;79;21657;-68
2020/12/10 10:00:50;;;;;;;19.37;10.03;;;;;;;-3.52;71.32;101316.55;1802505;78;21147;-70
2020/12/10 10:03:18;;;;;;;15.85;9.28;;;;;;;-3.47;71.33;101313.48;1807423;79;21590;-71
2020/12/10 10:05:48;;;;;;;20.30;10.15;;;;;;;-3.43;71.34;101307.81;1794138;79;21528;-73
2020/12/10 10:08:16;;;;;;;16.45;9.15;;;;;;;-3.44;71.23;101300.14;1805971;79;21658;-70
2020/12/10 10:10:44;;;;;;;16.90;9.45;;;;;;;-3.46;71.30;101291.13;1800159;79;21159;-71
2020/12/10 10:13:11;;;;;;;20.10;10.88;;;;;;;-3.45;71.40;101298.02;1803542;79;21650;-72
2020/12/10 10:15:41;;;;;;;19.10;9.58;;;;;;;-3.48;71.37;101294.88;1815044;79;21151;-73
2020/12/10 10:18:08;;;;;;;20.30;10.38;;;;;;;-3.53;71.55;101296.61;1793719;79;21051;-74
2020/12/10 10:20:37;;;;;;;18.27;9.10;;;;;;;-3.49;71.64;101299.26;1812319;77;22644;-74
2020/12/10 10:23:05;;;;;;;19.27;9.40;;;;;;;-3.51;71.84;101292.08;1812760;77;21183;-75
2020/12/10 10:25:33;;;;;;;20.48;10.08;;;;;;;-3.48;71.91;101281.33;1802018;77;21361;-73
2020/12/10 10:28:04;;;;;;;20.20;10.30;;;;;;;-3.47;72.00;101286.07;1803470;79;21599;-76
2020/12/10 10:30:31;;;;;;;19.82;10.70;;;;;;;-3.48;72.14;101276.60;1794486;77;21189;-74
2020/12/10 10:32:59;;;;;;;17.77;9.63;;;;;;;-3.48;72.21;101271.37;1806558;79;21079;-73
2020/12/10 10:35:27;;;;;;;17.95;10.23;;;;;;;-3.48;72.28;101259.14;1789942;79;21614;-74
2020/12/10 10:37:54;;;;;;;22.20;11.85;;;;;;;-3.48;72.36;101275.30;1792957;79;21562;-74
2020/12/10 10:40:25;;;;;;;20.32;10.63;;;;;;;-3.47;72.47;101279.05;1786377;79;21075;-74
2020/12/10 10:42:53;;;;;;;16.57;8.48;;;;;;;-3.43;72.58;101279.58;1800805;79;21818;-74
2020/12/10 10:45:20;;;;;;;23.42;11.33;;;;;;;-3.43;72.57;101273.05;1799522;79;21127;-74
2020/12/10 10:47:50;;;;;;;21.37;11.83;;;;;;;-3.48;72.76;101270.89;1784809;79;21667;-74
2020/12/10 10:50:19;;;;;;;19.25;9.98;;;;;;;-3.54;72.90;101272.29;1773481;79;21142;-74
2020/12/10 10:52:47;;;;;;;24.25;11.93;;;;;;;-3.54;73.08;101266.25;1816764;79;21108;-73
2020/12/10 10:55:15;;;;;;;24.30;12.47;;;;;;;-3.54;73.37;101259.72;1813203;79;21761;-74
2020/12/10 10:57:42;;;;;;;24.98;11.97;;;;;;;-3.58;73.67;101259.69;1803796;77;21128;-75
2020/12/10 11:00:09;;;;;;;23.92;12.23;;;;;;;-3.62;73.81;101260.47;1826486;77;21406;-74
2020/12/10 11:02:38;;;;;;;21.60;11.63;;;;;;;-3.61;74.07;101259.49;1815176;77;21108;-74
2020/12/10 11:05:05;;;;;;;28.38;13.53;;;;;;;-3.57;74.29;101260.83;1831082;77;21164;-73
2020/12/10 11:07:33;;;;;;;25.65;12.03;;;;;;;-3.54;74.36;101257.11;1811132;78;21353;-73
2020/12/10 11:10:01;;;;;;;28.98;14.13;;;;;;;-3.52;74.48;101264.78;1805511;78;21068;-74
2020/12/10 11:12:29;;;;;;;28.45;14.53;;;;;;;-3.51;74.52;101269.06;1819117;77;21163;-72
2020/12/10 11:14:56;;;;;;;26.10;13.55;;;;;;;-3.51;74.62;101272.48;1823636;77;21681;-73
2020/12/10 11:17:23;;;;;;;28.73;12.78;;;;;;;-3.52;74.71;101267.39;1808441;78;21140;-74
2020/12/10 11:19:51;;;;;;;28.45;13.98;;;;;;;-3.55;74.89;101271.97;1800104;77;21350;-74
2020/12/10 11:22:19;;;;;;;27.98;13.48;;;;;;;-3.57;74.98;101263.94;1821217;77;21147;-74
2020/12/10 11:24:47;;;;;;;31.57;15.60;;;;;;;-3.56;75.23;101260.34;1815773;79;21131;-75
2020/12/10 11:27:15;;;;;;;28.85;15.28;;;;;;;-3.52;75.21;101263.02;1804358;79;21158;-75
2020/12/10 11:29:44;;;;;;;25.32;12.88;;;;;;;-3.48;75.39;101258.32;1821289;77;21168;-74
2020/12/10 11:32:12;;;;;;;25.55;12.68;;;;;;;-3.43;75.50;101252.16;1835404;77;21521;-74
2020/12/10 11:34:40;;;;;;;29.75;13.30;;;;;;;-3.41;75.49;101248.92;1784521;79;21203;-74
2020/12/10 11:37:07;;;;;;;25.82;13.20;;;;;;;-3.38;75.63;101257.77;1811955;77;21224;-74
2020/12/10 11:39:34;;;;;;;22.77;11.73;;;;;;;-3.38;75.72;101254.66;1806577;78;21125;-74
2020/12/10 11:42:03;;;;;;;31.30;15.53;;;;;;;-3.36;75.86;101250.09;1809439;77;21167;-75
2020/12/10 11:44:31;;;;;;;32.70;15.18;;;;;;;-3.35;76.02;101242.61;1807506;77;22699;-75
2020/12/10 11:46:58;;;;;;;31.68;14.60;;;;;;;-3.34;76.15;101235.11;1846326;77;21171;-74
2020/12/10 11:49:27;;;;;;;27.93;13.95;;;;;;;-3.37;76.44;101230.66;1815520;77;21729;-73
2020/12/10 11:51:57;;;;;;;27.75;13.58;;;;;;;-3.40;76.56;101233.58;1806685;79;21235;-73
2020/12/10 11:54:25;;;;;;;37.65;16.32;;;;;;;-3.41;76.70;101237.16;1817834;78;21123;-75
2020/12/10 11:56:57;;;;;;;32.78;16.65;;;;;;;-3.38;76.85;101235.56;1815494;77;21376;-74
2020/12/10 11:59:25;;;;;;;29.25;15.55;;;;;;;-3.37;76.92;101226.75;1821672;77;21143;-74
2020/12/10 12:01:52;;;;;;;29.57;13.83;;;;;;;-3.36;77.02;101222.67;1788132;79;21056;-74
2020/12/10 12:04:20;;;;;;;31.90;15.70;;;;;;;-3.37;77.14;101232.79;1817679;79;21103;-76
2020/12/10 12:06:47;;;;;;;29.95;15.53;;;;;;;-3.39;77.22;101232.14;1817757;79;21104;-73